Churchill Falls, Canada
Current Conditions -  °F | °C
As of 2:00 AM on Friday 28 Nov 2014 (Local Time) from CZUM Reporting Station
Clear Clear  
Wind Chill: -19°   Ceiling: Unl
Heat Index: -2°   Visibility: 9mi
Dew Point: -4°   Wind: 10mph
Humidity: 92%   Direction: 320°NW
Pressure: 29.93"   Gusts: 17mph
Location:  53.53°N, 64°W
Report Text: CZUM 280600Z AUTO 32009G15KT 9SM CLR M19/M20 A2993 RMK SLP179
Loading
Personal Weather Stations






























Interactive Weather Map New forecast layout! Learn more

10-Day Weather Forecast

Advertisements
Track Severe Weather on mobile